Airfield :
LOGIN :

Register | Disclaimer

   EN    FR    IT 

 










Legend :    VFR   Marginal VFR   IFR   Intensive IFR   Very Intensive IFR
Visi :
Ceiling :
>= 8 km
>= 3000ft
5 to 8 km
1000 to 3000 ft
1500m to 5 km
500 to 1000 ft
800 to 1500m
200 to 500 ft
< 800m
< 200 ft
Symbols :   Thunderstorms  Fog  Heavy snow  Heavy precipitations  Wind > 20 kt
SIGMETs :     Misc.  Thunderstorms  Icing  Turbulence  Mountain Waves  Volcanic Ashes







- Airport Elevation : 1959 ft
- IATA code : HOQ


EDQM - Hof Plauen

CURRENT METAR :
  • 241520Z 02010KT CAVOK 09/02 Q1027

EXPIRED METARs :
  • 241450Z 01012KT 340V050 CAVOK 09/02 Q1028
  • 241420Z 01012KT CAVOK 09/02 Q1028
  • 241350Z 01011KT 9999 FEW026 09/02 Q1028
  • 241320Z 01009KT 340V050 9999 FEW025 09/02 Q1028
  • 241250Z 02011KT 350V060 9999 FEW026 09/02 Q1028

TAF TAF EDQM
Valid from the 24 at 15:00 until the 25 at 00:00 UTC


241400Z 2415/2424 03010KT 9999 SCT020
TEMPO 2420/2424 4000 BR BKN008
No reported NOTAMs for that airfield.



MET'MAP, your aeronautical weather chart ! - Copyright ORBIFLY December 2007 - Disclaimer

ORBIFLY MET'MAP TEAM :

Programming & Development : Alexandra Zaïnal
Concept & Development : Baudouin d'Aumeries
Co-Development & Prog : Marc-Olivier Méhu
Technical & hardware support : Manuel Goepfert

Contact : metmap@orbifly.com




SOURCES & CREDITS :

   NOAA